Time;durP1;ratioP1;P1;durP2;ratioP2;P2;SDS_P1;SDS_P2;PMS_P1;PMS_P2;Temp;Humidity;BMP_temperature;BMP_pressure;BME280_temperature;BME280_humidity;BME280_pressure;Samples;Min_cycle;Max_cycle;Signal;HPM_P1;HPM_P2
2024/01/19 00:02:09;;;;;;;6.70;2.85;;;-1.40;99.90;;;;;;6122866;23;20459;-74
2024/01/19 00:04:35;;;;;;;4.72;2.35;;;-1.50;99.90;;;;;;6123198;23;20394;-74
2024/01/19 00:07:01;;;;;;;6.97;2.28;;;-1.50;99.90;;;;;;6122887;23;20019;-74
2024/01/19 00:09:27;;;;;;;11.38;6.07;;;-1.50;99.90;;;;;;6123118;23;20022;-74
2024/01/19 00:11:52;;;;;;;4.93;2.17;;;-1.60;99.90;;;;;;6122751;23;20021;-73
2024/01/19 00:14:18;;;;;;;5.75;2.45;;;-1.60;99.90;;;;;;6122628;23;20346;-73
2024/01/19 00:16:43;;;;;;;7.85;2.85;;;-1.60;99.90;;;;;;6123159;23;20010;-73
2024/01/19 00:19:09;;;;;;;8.25;2.50;;;-1.50;99.90;;;;;;6122824;23;20040;-73
2024/01/19 00:21:42;;;;;;;8.00;2.55;;;-1.50;99.90;;;;;;6122976;23;20014;-74
2024/01/19 00:24:08;;;;;;;9.25;3.13;;;-1.40;99.90;;;;;;6123021;23;20021;-74
2024/01/19 00:26:33;;;;;;;7.57;2.65;;;-1.40;99.90;;;;;;6123107;23;20014;-74
2024/01/19 00:28:59;;;;;;;5.25;2.65;;;-1.40;99.90;;;;;;6123066;23;20076;-74
2024/01/19 00:31:26;;;;;;;10.68;2.97;;;-1.40;99.90;;;;;;6123242;23;20443;-73
2024/01/19 00:33:52;;;;;;;5.45;2.65;;;-1.40;99.90;;;;;;6122517;23;20018;-73
2024/01/19 00:36:17;;;;;;;9.05;3.38;;;-1.40;99.90;;;;;;6100347;23;20101;-73
2024/01/19 00:38:43;;;;;;;9.75;2.55;;;-1.50;99.90;;;;;;6125073;23;20006;-73
2024/01/19 00:41:09;;;;;;;5.70;2.67;;;-1.50;99.90;;;;;;6124714;23;20093;-73
2024/01/19 00:43:34;;;;;;;7.30;2.58;;;-1.60;99.90;;;;;;6123940;23;20052;-73
2024/01/19 00:46:02;;;;;;;4.72;2.50;;;-1.60;99.90;;;;;;6124799;23;20021;-73
2024/01/19 00:48:27;;;;;;;8.25;2.88;;;-1.70;99.90;;;;;;6124692;23;20049;-73
2024/01/19 00:50:53;;;;;;;6.57;2.22;;;-1.70;99.90;;;;;;6124733;23;20069;-73
2024/01/19 00:53:18;;;;;;;5.68;2.38;;;-1.80;99.90;;;;;;6124480;23;20025;-73
2024/01/19 00:55:44;;;;;;;7.15;2.63;;;-1.80;99.90;;;;;;6124369;23;20025;-74
2024/01/19 00:58:10;;;;;;;9.00;3.22;;;-1.80;99.90;;;;;;6124235;23;20089;-74
2024/01/19 01:00:36;;;;;;;5.10;2.47;;;-1.80;99.90;;;;;;6124660;23;20342;-74
2024/01/19 01:03:02;;;;;;;5.05;2.22;;;-1.80;99.90;;;;;;6124389;23;20084;-74
2024/01/19 01:05:27;;;;;;;4.60;2.10;;;-1.90;99.90;;;;;;6124718;23;20096;-73
2024/01/19 01:07:53;;;;;;;6.38;2.38;;;-1.90;99.90;;;;;;6124079;23;20021;-73
2024/01/19 01:10:19;;;;;;;13.82;6.90;;;-1.90;99.90;;;;;;6124965;23;20383;-74
2024/01/19 01:12:44;;;;;;;5.22;2.60;;;-1.80;99.90;;;;;;6124937;23;20073;-74
2024/01/19 01:15:10;;;;;;;6.13;2.75;;;-1.80;99.90;;;;;;6124334;23;20061;-73
2024/01/19 01:17:36;;;;;;;6.30;2.40;;;-1.70;99.90;;;;;;6124349;23;20014;-73
2024/01/19 01:20:02;;;;;;;10.40;2.90;;;-1.60;99.90;;;;;;6124343;23;20038;-73
2024/01/19 01:22:28;;;;;;;4.45;2.80;;;-1.60;99.90;;;;;;6123976;23;20447;-73
2024/01/19 01:24:53;;;;;;;5.47;2.97;;;-1.60;99.90;;;;;;6123871;23;20040;-73
2024/01/19 01:27:19;;;;;;;12.57;7.95;;;-1.50;99.90;;;;;;6124155;23;20014;-73
2024/01/19 01:29:44;;;;;;;10.25;3.30;;;-1.50;99.90;;;;;;6124744;23;20439;-74
2024/01/19 01:32:11;;;;;;;8.27;3.47;;;-1.40;99.90;;;;;;6124276;23;20013;-74
2024/01/19 01:34:36;;;;;;;5.72;3.20;;;-1.40;99.90;;;;;;6124285;23;20065;-73
2024/01/19 01:37:02;;;;;;;11.48;3.42;;;-1.40;99.90;;;;;;6124386;23;20339;-74
2024/01/19 01:39:28;;;;;;;7.57;2.95;;;-1.40;99.90;;;;;;6123743;23;20018;-74
2024/01/19 01:41:53;;;;;;;4.90;3.05;;;-1.40;99.90;;;;;;6124176;23;20010;-74
2024/01/19 01:44:19;;;;;;;10.45;3.60;;;-1.40;99.90;;;;;;6123610;23;20447;-74
2024/01/19 01:46:45;;;;;;;6.78;3.35;;;-1.40;99.90;;;;;;6124506;23;20024;-74
2024/01/19 01:49:10;;;;;;;8.75;3.35;;;-1.40;99.90;;;;;;6123965;23;20329;-74
2024/01/19 01:51:36;;;;;;;10.55;3.42;;;-1.40;99.90;;;;;;6124474;23;20070;-74
2024/01/19 01:54:04;;;;;;;7.55;3.40;;;-1.40;99.90;;;;;;6123668;23;20053;-74
2024/01/19 01:56:30;;;;;;;8.00;3.58;;;-1.40;99.90;;;;;;6123927;23;20050;-74
2024/01/19 01:58:56;;;;;;;8.25;3.42;;;-1.40;99.90;;;;;;6124070;23;20021;-74
2024/01/19 02:01:21;;;;;;;12.35;7.68;;;-1.40;99.90;;;;;;6123530;23;20010;-74
2024/01/19 02:03:48;;;;;;;7.03;3.55;;;-1.40;99.90;;;;;;6123594;23;20014;-74
2024/01/19 02:06:14;;;;;;;5.78;3.13;;;-1.40;99.90;;;;;;6123608;23;20065;-74
2024/01/19 02:08:40;;;;;;;8.68;3.08;;;-1.50;99.90;;;;;;6123673;23;20372;-74
2024/01/19 02:11:06;;;;;;;7.05;3.05;;;-1.40;99.90;;;;;;6123878;23;20014;-74
2024/01/19 02:13:32;;;;;;;15.38;7.90;;;-1.30;99.90;;;;;;6123315;23;20020;-74
2024/01/19 02:16:00;;;;;;;7.95;3.05;;;-1.30;99.90;;;;;;6123788;23;20093;-74
2024/01/19 02:18:26;;;;;;;4.47;2.67;;;-1.30;99.90;;;;;;6099108;23;20010;-74
2024/01/19 02:20:53;;;;;;;7.15;3.55;;;-1.40;99.90;;;;;;6123836;23;20018;-74
2024/01/19 02:23:21;;;;;;;6.35;2.97;;;-1.40;99.90;;;;;;6123497;23;20088;-74
2024/01/19 02:25:47;;;;;;;5.68;3.40;;;-1.50;99.90;;;;;;6123990;23;20009;-73
2024/01/19 02:28:13;;;;;;;9.55;3.53;;;-1.60;99.90;;;;;;6123322;23;20439;-73
2024/01/19 02:30:40;;;;;;;7.85;3.30;;;-1.60;99.90;;;;;;6124090;23;20354;-74
2024/01/19 02:33:06;;;;;;;5.57;3.15;;;-1.70;99.90;;;;;;6123167;23;20024;-74
2024/01/19 02:35:31;;;;;;;8.77;2.92;;;-1.70;99.90;;;;;;6122897;23;20014;-74
2024/01/19 02:37:57;;;;;;;5.93;3.55;;;-1.80;99.90;;;;;;6123509;23;20013;-73
2024/01/19 02:40:23;;;;;;;7.07;2.85;;;-1.80;99.90;;;;;;6123628;23;20118;-74
2024/01/19 02:42:48;;;;;;;10.95;3.65;;;-1.80;99.90;;;;;;6123280;23;20335;-74
2024/01/19 02:45:14;;;;;;;12.93;7.80;;;-1.80;99.90;;;;;;6099057;23;20010;-74
2024/01/19 02:47:40;;;;;;;7.53;2.78;;;-1.70;99.90;;;;;;6123725;23;20399;-74
2024/01/19 02:50:06;;;;;;;3.58;2.70;;;-1.50;99.90;;;;;;6123444;23;20082;-74
2024/01/19 02:52:33;;;;;;;7.15;1.23;;;-1.30;99.90;;;;;;6123771;23;20021;-74
2024/01/19 02:54:59;;;;;;;3.35;0.90;;;-1.20;99.90;;;;;;6123062;23;20018;-74
2024/01/19 02:57:25;;;;;;;5.25;0.77;;;-1.00;99.90;;;;;;6122566;23;20018;-74
2024/01/19 02:59:50;;;;;;;3.67;0.75;;;-0.80;99.90;;;;;;6123856;23;20010;-74
2024/01/19 03:02:16;;;;;;;9.68;2.97;;;-0.70;99.90;;;;;;6123645;23;20021;-74
2024/01/19 03:04:41;;;;;;;3.95;0.98;;;-0.60;99.90;;;;;;6123210;23;20076;-74
2024/01/19 03:07:07;;;;;;;2.75;1.13;;;-0.50;99.90;;;;;;6123133;23;20014;-74
2024/01/19 03:09:33;;;;;;;10.60;2.95;;;-0.50;99.90;;;;;;6123935;23;20044;-74
2024/01/19 03:11:58;;;;;;;3.05;1.13;;;-0.40;99.90;;;;;;6123382;23;20014;-74
2024/01/19 03:14:24;;;;;;;3.72;0.82;;;-0.40;99.90;;;;;;6123499;23;20017;-74
2024/01/19 03:16:51;;;;;;;2.60;0.60;;;-0.40;99.90;;;;;;6123172;23;20021;-74
2024/01/19 03:19:16;;;;;;;0.95;0.63;;;-0.40;99.90;;;;;;6123460;23;20006;-74
2024/01/19 03:21:42;;;;;;;5.80;1.35;;;-0.50;99.90;;;;;;6123087;23;20049;-74
2024/01/19 03:24:07;;;;;;;2.42;0.47;;;-0.60;99.90;;;;;;6123360;23;20073;-74
2024/01/19 03:26:33;;;;;;;9.27;1.13;;;-0.70;99.90;;;;;;6098768;23;20037;-74
2024/01/19 03:28:59;;;;;;;2.20;0.80;;;-0.80;99.90;;;;;;6122957;23;20010;-74
2024/01/19 03:31:25;;;;;;;1.20;0.75;;;-0.80;99.90;;;;;;6123219;23;20025;-74
2024/01/19 03:33:51;;;;;;;2.53;0.77;;;-0.70;99.90;;;;;;6122981;23;20459;-74
2024/01/19 03:36:16;;;;;;;1.17;0.60;;;-0.80;99.90;;;;;;6122633;23;20373;-74
2024/01/19 03:38:42;;;;;;;1.30;0.60;;;-0.80;99.90;;;;;;6123307;23;20018;-74
2024/01/19 03:41:07;;;;;;;7.13;2.75;;;-0.80;99.90;;;;;;6122996;23;20010;-74
2024/01/19 03:43:33;;;;;;;3.30;0.93;;;-0.80;99.90;;;;;;6122604;23;20010;-74
2024/01/19 03:45:59;;;;;;;4.00;0.85;;;-0.70;99.90;;;;;;6122808;23;20014;-74
2024/01/19 03:48:24;;;;;;;7.55;1.08;;;-0.70;99.90;;;;;;6122934;23;20060;-74
2024/01/19 03:50:50;;;;;;;9.18;2.88;;;-0.70;99.90;;;;;;6122780;23;20506;-74
2024/01/19 03:53:16;;;;;;;6.32;2.70;;;-0.70;99.90;;;;;;6122598;23;20013;-74
2024/01/19 03:55:41;;;;;;;1.85;0.90;;;-0.60;99.90;;;;;;6122662;23;20021;-74
2024/01/19 03:58:07;;;;;;;5.38;1.10;;;-0.60;99.90;;;;;;6122516;23;20013;-74
2024/01/19 04:00:32;;;;;;;3.13;0.90;;;-0.60;99.90;;;;;;6122907;23;20025;-74
2024/01/19 04:02:58;;;;;;;6.32;2.30;;;-0.50;99.90;;;;;;6122699;23;20451;-74
2024/01/19 04:05:23;;;;;;;10.93;1.20;;;-0.50;99.90;;;;;;6122501;23;20021;-74
2024/01/19 04:07:49;;;;;;;3.60;0.90;;;-0.50;99.90;;;;;;6122421;23;20145;-74
2024/01/19 04:10:15;;;;;;;7.47;3.05;;;-0.40;99.90;;;;;;6122715;23;20018;-74
2024/01/19 04:12:40;;;;;;;1.95;1.23;;;-0.40;99.90;;;;;;6122776;23;20073;-74
2024/01/19 04:15:06;;;;;;;9.40;5.50;;;-0.30;99.90;;;;;;6122655;23;20343;-74
2024/01/19 04:17:32;;;;;;;12.25;8.40;;;-0.20;99.90;;;;;;6122591;23;20092;-74
2024/01/19 04:19:58;;;;;;;7.70;2.05;;;-0.10;99.90;;;;;;6122866;23;20041;-74
2024/01/19 04:22:25;;;;;;;5.45;2.08;;;-0.10;99.90;;;;;;6122002;23;20061;-74
2024/01/19 04:24:51;;;;;;;14.50;10.18;;;-0.10;99.90;;;;;;6122550;23;20020;-74
2024/01/19 04:27:16;;;;;;;9.52;3.10;;;0.00;99.90;;;;;;6122748;23;20010;-74
2024/01/19 04:29:42;;;;;;;18.13;9.65;;;0.00;99.90;;;;;;6123374;23;20010;-75
2024/01/19 04:32:08;;;;;;;3.85;2.70;;;0.00;99.90;;;;;;6122652;23;20006;-74
2024/01/19 04:34:33;;;;;;;6.75;1.85;;;0.10;99.90;;;;;;6122459;23;20014;-74
2024/01/19 04:36:59;;;;;;;7.05;1.95;;;0.00;99.90;;;;;;6097971;23;20050;-74
2024/01/19 04:39:25;;;;;;;6.68;3.35;;;0.00;99.90;;;;;;6122721;23;20024;-74
2024/01/19 04:41:50;;;;;;;3.45;1.20;;;-0.10;99.90;;;;;;6122547;23;20010;-74
2024/01/19 04:44:16;;;;;;;0.75;0.63;;;-0.20;99.90;;;;;;6122528;23;20521;-74
2024/01/19 04:46:42;;;;;;;6.38;2.03;;;-0.30;99.90;;;;;;6122648;23;20014;-74
2024/01/19 04:49:07;;;;;;;2.25;0.57;;;-0.50;99.90;;;;;;6098257;23;20065;-74
2024/01/19 04:51:33;;;;;;;1.35;0.60;;;-0.60;99.90;;;;;;6122427;23;20061;-74
2024/01/19 04:53:59;;;;;;;2.70;1.00;;;-0.70;99.90;;;;;;6122200;23;20017;-74
2024/01/19 04:56:25;;;;;;;2.05;0.60;;;-0.80;99.90;;;;;;6122815;23;20604;-74
2024/01/19 04:58:51;;;;;;;5.25;1.77;;;-1.00;99.90;;;;;;6122493;23;20145;-74
2024/01/19 05:01:17;;;;;;;3.10;0.52;;;-1.00;99.90;;;;;;6122226;23;20045;-74
2024/01/19 05:03:43;;;;;;;0.77;0.50;;;-1.10;99.90;;;;;;6121807;23;20502;-74
2024/01/19 05:06:11;;;;;;;0.88;0.40;;;-1.20;99.90;;;;;;6122903;23;20020;-74
2024/01/19 05:08:36;;;;;;;1.23;0.57;;;-1.20;99.90;;;;;;6122444;23;20010;-74
2024/01/19 05:11:03;;;;;;;6.43;1.98;;;-1.20;99.90;;;;;;6122940;23;20317;-74
2024/01/19 05:13:28;;;;;;;5.75;0.70;;;-1.10;99.90;;;;;;6122202;23;20347;-74
2024/01/19 05:15:54;;;;;;;1.33;0.60;;;-1.10;99.90;;;;;;6122707;23;20406;-74
2024/01/19 05:18:21;;;;;;;2.03;0.63;;;-1.10;99.90;;;;;;6098205;23;20006;-74
2024/01/19 05:20:46;;;;;;;3.95;0.60;;;-1.10;99.90;;;;;;6123663;23;20030;-74
2024/01/19 05:23:12;;;;;;;2.13;0.73;;;-1.20;99.90;;;;;;6124052;23;20006;-74
2024/01/19 05:25:37;;;;;;;5.18;2.17;;;-1.30;99.90;;;;;;6124595;23;20018;-74
2024/01/19 05:28:03;;;;;;;2.55;0.90;;;-1.40;99.90;;;;;;6124658;23;20533;-74
2024/01/19 05:30:29;;;;;;;3.00;0.73;;;-1.50;99.90;;;;;;6124372;23;20010;-74
2024/01/19 05:32:55;;;;;;;1.98;0.63;;;-1.60;99.90;;;;;;6124578;23;20018;-74
2024/01/19 05:35:21;;;;;;;1.55;1.02;;;-1.70;99.90;;;;;;6124470;23;20009;-74
2024/01/19 05:37:46;;;;;;;3.20;0.65;;;-1.80;99.90;;;;;;6124634;23;20343;-74
2024/01/19 05:40:12;;;;;;;3.45;0.60;;;-1.90;99.90;;;;;;6125025;23;20014;-74
2024/01/19 05:42:37;;;;;;;1.85;0.90;;;-1.90;99.90;;;;;;6124945;23;20077;-74
2024/01/19 05:45:03;;;;;;;4.15;0.70;;;-1.90;99.90;;;;;;6124679;23;20006;-74
2024/01/19 05:47:29;;;;;;;3.63;0.60;;;-2.00;99.90;;;;;;6124965;23;20050;-74
2024/01/19 05:49:55;;;;;;;5.47;1.52;;;-1.90;99.90;;;;;;6125262;23;20014;-74
2024/01/19 05:52:21;;;;;;;1.95;0.52;;;-1.90;99.90;;;;;;6124507;23;20080;-73
2024/01/19 05:54:46;;;;;;;1.65;0.50;;;-1.90;99.90;;;;;;6124417;23;20069;-73
2024/01/19 05:57:12;;;;;;;3.75;0.50;;;-2.00;99.90;;;;;;6124526;23;20018;-74
2024/01/19 05:59:40;;;;;;;3.90;0.50;;;-2.00;99.90;;;;;;6125365;23;20061;-73
2024/01/19 06:02:06;;;;;;;2.28;0.80;;;-2.10;99.90;;;;;;6125164;23;20010;-73
2024/01/19 06:04:40;;;;;;;1.25;0.60;;;-2.10;99.90;;;;;;6124284;23;20021;-74
2024/01/19 06:07:06;;;;;;;5.43;0.80;;;-2.20;99.90;;;;;;6124382;23;20022;-74
2024/01/19 06:09:32;;;;;;;1.25;0.50;;;-2.10;99.90;;;;;;6100748;23;20093;-73
2024/01/19 06:11:57;;;;;;;1.88;0.73;;;-2.20;99.90;;;;;;6125186;23;20335;-74
2024/01/19 06:14:23;;;;;;;6.50;1.15;;;-2.20;99.90;;;;;;6123899;23;20021;-74
2024/01/19 06:16:49;;;;;;;11.75;2.38;;;-2.20;99.90;;;;;;6123667;23;20064;-74
2024/01/19 06:19:15;;;;;;;1.23;0.52;;;-2.20;99.90;;;;;;6124675;23;20092;-74
2024/01/19 06:21:47;;;;;;;4.88;0.70;;;-2.20;99.90;;;;;;6125647;23;20010;-74
2024/01/19 06:24:15;;;;;;;5.32;0.77;;;-2.30;99.90;;;;;;6124864;23;20072;-74
2024/01/19 06:26:48;;;;;;;2.60;1.42;;;-2.30;99.90;;;;;;6125779;23;20014;-74
2024/01/19 06:29:14;;;;;;;4.22;0.75;;;-2.40;99.90;;;;;;6125355;23;20022;-74
2024/01/19 06:31:44;;;;;;;3.10;0.90;;;-2.40;99.90;;;;;;6124750;23;20021;-73
2024/01/19 06:34:10;;;;;;;2.72;0.93;;;-2.40;99.90;;;;;;6125555;23;20362;-74
2024/01/19 06:36:36;;;;;;;3.80;1.05;;;-2.40;99.90;;;;;;6125509;23;20014;-74
2024/01/19 06:39:02;;;;;;;1.38;0.95;;;-2.40;99.90;;;;;;6125241;23;20014;-73
2024/01/19 06:41:27;;;;;;;2.58;1.00;;;-2.30;99.90;;;;;;6125481;23;20010;-74
2024/01/19 06:43:53;;;;;;;4.90;1.00;;;-2.40;99.90;;;;;;6125235;23;20014;-74
2024/01/19 06:46:18;;;;;;;2.33;1.02;;;-2.40;99.90;;;;;;6124644;23;20014;-73
2024/01/19 06:48:44;;;;;;;3.17;1.13;;;-2.40;99.90;;;;;;6124590;23;20022;-73
2024/01/19 06:51:16;;;;;;;4.20;1.05;;;-2.40;99.90;;;;;;6125385;23;20016;-74
2024/01/19 06:53:41;;;;;;;5.78;1.00;;;-2.40;99.90;;;;;;6125347;23;20098;-73
2024/01/19 06:56:07;;;;;;;4.55;0.90;;;-2.30;99.90;;;;;;6124820;23;20045;-74
2024/01/19 06:58:32;;;;;;;10.05;3.85;;;-2.30;99.90;;;;;;6124620;23;20387;-73
2024/01/19 07:00:58;;;;;;;6.07;1.45;;;-2.20;99.90;;;;;;6124566;23;20033;-74
2024/01/19 07:03:23;;;;;;;4.30;0.93;;;-2.00;99.90;;;;;;6100264;23;20006;-73
2024/01/19 07:05:49;;;;;;;3.95;1.10;;;-1.90;99.90;;;;;;6124980;23;20069;-73
2024/01/19 07:08:15;;;;;;;5.05;1.20;;;-1.80;99.90;;;;;;6125121;23;20017;-74
2024/01/19 07:10:41;;;;;;;3.20;0.88;;;-1.70;99.90;;;;;;6124224;23;20092;-73
2024/01/19 07:13:06;;;;;;;11.23;3.95;;;-1.60;99.90;;;;;;6124660;23;20049;-74
2024/01/19 07:15:32;;;;;;;5.47;1.40;;;-1.50;99.90;;;;;;6124559;23;20014;-73
2024/01/19 07:17:57;;;;;;;7.47;1.50;;;-1.40;99.90;;;;;;6124864;23;20006;-73
2024/01/19 07:20:23;;;;;;;3.85;1.77;;;-1.30;99.90;;;;;;6124235;23;20013;-74
2024/01/19 07:22:51;;;;;;;4.97;2.25;;;-1.20;99.90;;;;;;6123404;23;20487;-75
2024/01/19 07:25:20;;;;;;;6.75;1.88;;;-1.10;99.90;;;;;;6123334;23;20017;-75
2024/01/19 07:27:45;;;;;;;4.57;1.42;;;-1.10;99.90;;;;;;6123530;23;20014;-73
2024/01/19 07:30:14;;;;;;;8.13;1.55;;;-1.00;99.90;;;;;;6122584;23;20102;-75
2024/01/19 07:32:43;;;;;;;11.23;5.35;;;-1.00;99.90;;;;;;6122847;23;20022;-76
2024/01/19 07:35:08;;;;;;;8.90;2.22;;;-1.00;99.90;;;;;;6123070;23;20016;-76
2024/01/19 07:37:34;;;;;;;4.53;1.80;;;-1.00;99.90;;;;;;6123394;23;20014;-76
2024/01/19 07:40:00;;;;;;;5.68;1.45;;;-1.10;99.90;;;;;;6122803;23;20025;-76
2024/01/19 07:42:25;;;;;;;5.30;1.60;;;-1.10;99.90;;;;;;6123246;23;20010;-76
2024/01/19 07:44:51;;;;;;;6.57;1.70;;;-1.10;99.90;;;;;;6123009;23;20014;-76
2024/01/19 07:47:16;;;;;;;7.78;2.65;;;-1.10;99.90;;;;;;6122765;23;20021;-77
2024/01/19 07:49:44;;;;;;;5.75;1.58;;;-1.00;99.90;;;;;;6122635;23;20057;-77
2024/01/19 07:52:10;;;;;;;3.65;1.42;;;-0.90;99.90;;;;;;6122242;23;20096;-75
2024/01/19 07:54:35;;;;;;;6.95;2.00;;;-0.90;99.90;;;;;;6123007;23;20475;-76
2024/01/19 07:57:01;;;;;;;6.00;1.80;;;-1.00;99.90;;;;;;6123276;23;20085;-76
2024/01/19 07:59:27;;;;;;;11.75;5.07;;;-1.00;99.90;;;;;;6122383;23;20010;-76
2024/01/19 08:01:52;;;;;;;4.65;1.55;;;-1.00;99.90;;;;;;6122693;23;20017;-75
2024/01/19 08:04:18;;;;;;;3.95;1.58;;;-1.10;99.90;;;;;;6122418;23;20033;-75
2024/01/19 08:06:44;;;;;;;4.40;1.63;;;-1.10;99.90;;;;;;6122477;23;20056;-76
2024/01/19 08:09:12;;;;;;;7.82;1.67;;;-1.10;99.90;;;;;;6123276;23;20025;-76
2024/01/19 08:11:37;;;;;;;10.27;5.43;;;-1.10;99.90;;;;;;6122944;23;20374;-76
2024/01/19 08:14:03;;;;;;;5.28;2.05;;;-1.10;99.90;;;;;;6122847;23;20094;-76
2024/01/19 08:16:28;;;;;;;10.18;5.35;;;-1.00;99.90;;;;;;6123339;23;20036;-76
2024/01/19 08:18:56;;;;;;;4.28;1.85;;;-1.00;99.90;;;;;;6122948;23;20010;-76
2024/01/19 08:21:25;;;;;;;5.20;2.03;;;-0.90;99.90;;;;;;6123400;23;20010;-75
2024/01/19 08:23:51;;;;;;;3.70;1.92;;;-0.90;99.90;;;;;;6122801;23;20014;-75
2024/01/19 08:26:20;;;;;;;4.72;1.83;;;-0.80;99.90;;;;;;6123739;23;20046;-76
2024/01/19 08:28:46;;;;;;;4.85;1.98;;;-0.80;99.90;;;;;;6122580;23;20018;-76
2024/01/19 08:31:13;;;;;;;15.40;6.60;;;-0.80;99.90;;;;;;6123083;23;20010;-75
2024/01/19 08:33:39;;;;;;;5.43;2.17;;;-0.80;99.90;;;;;;6122312;23;20453;-76
2024/01/19 08:36:04;;;;;;;3.28;2.10;;;-0.90;99.90;;;;;;6122627;23;20108;-75
2024/01/19 08:38:30;;;;;;;5.45;2.70;;;-0.90;99.90;;;;;;6122750;23;20017;-76
2024/01/19 08:40:58;;;;;;;7.68;3.05;;;-1.00;99.90;;;;;;6123041;23;20010;-77
2024/01/19 08:43:23;;;;;;;7.85;2.92;;;-1.00;99.90;;;;;;6122512;23;20066;-77
2024/01/19 08:45:49;;;;;;;4.88;2.20;;;-1.00;99.90;;;;;;6122570;23;20045;-77
2024/01/19 08:48:15;;;;;;;14.85;8.65;;;-1.00;99.90;;;;;;6123184;23;20022;-75
2024/01/19 08:50:41;;;;;;;14.70;9.00;;;-0.90;99.90;;;;;;6123207;23;20093;-75
2024/01/19 08:53:07;;;;;;;7.63;3.28;;;-0.90;99.90;;;;;;6121747;23;20451;-76
2024/01/19 08:55:32;;;;;;;7.85;3.13;;;-0.90;99.90;;;;;;6098485;23;20474;-76
2024/01/19 08:57:58;;;;;;;9.00;3.25;;;-0.90;99.90;;;;;;6124073;23;20014;-75
2024/01/19 09:00:23;;;;;;;13.57;8.95;;;-1.00;99.90;;;;;;6123909;23;20014;-75
2024/01/19 09:02:49;;;;;;;10.07;3.67;;;-0.90;99.90;;;;;;6124946;23;20010;-76
2024/01/19 09:05:15;;;;;;;8.82;3.63;;;-0.90;99.90;;;;;;6124004;23;20018;-76
2024/01/19 09:07:41;;;;;;;7.03;3.13;;;-0.90;99.90;;;;;;6124431;23;20342;-76
2024/01/19 09:10:07;;;;;;;14.68;10.05;;;-0.90;99.90;;;;;;6124852;23;20033;-76
2024/01/19 09:12:33;;;;;;;10.38;4.25;;;-0.80;99.90;;;;;;6100455;23;20014;-75
2024/01/19 09:14:59;;;;;;;7.57;3.92;;;-0.80;99.90;;;;;;6123222;23;20010;-75
2024/01/19 09:17:24;;;;;;;6.85;3.83;;;-0.80;99.90;;;;;;6124447;23;20384;-74
2024/01/19 09:19:51;;;;;;;8.18;4.40;;;-0.70;99.90;;;;;;6124459;23;20474;-75
2024/01/19 09:22:17;;;;;;;9.48;4.85;;;-0.70;99.90;;;;;;6123885;23;20018;-74
2024/01/19 09:24:43;;;;;;;7.28;3.88;;;-0.70;99.90;;;;;;6124538;23;20089;-74
2024/01/19 09:27:09;;;;;;;17.13;12.10;;;-0.70;99.90;;;;;;6124024;23;20056;-76
2024/01/19 09:29:34;;;;;;;9.43;4.55;;;-0.60;99.90;;;;;;6100730;23;20463;-75
2024/01/19 09:32:00;;;;;;;6.50;3.90;;;-0.60;99.90;;;;;;6125355;23;20093;-74
2024/01/19 09:34:25;;;;;;;9.70;4.25;;;-0.60;99.90;;;;;;6125297;23;20447;-74
2024/01/19 09:36:51;;;;;;;15.75;10.57;;;-0.60;99.90;;;;;;6122454;23;20025;-75
2024/01/19 09:39:18;;;;;;;14.70;10.55;;;-0.50;99.90;;;;;;6099367;23;20458;-75
2024/01/19 09:41:49;;;;;;;11.10;5.20;;;-0.50;99.90;;;;;;6099438;23;20033;-74
2024/01/19 09:44:18;;;;;;;7.55;4.18;;;-0.40;99.90;;;;;;6123748;23;20020;-74
2024/01/19 09:46:58;;;;;;;6.65;3.72;;;-0.40;99.90;;;;;;6124217;23;20092;-74
2024/01/19 09:49:48;;;;;;;10.93;4.55;;;-0.30;99.90;;;;;;6124353;23;20025;-74
2024/01/19 09:52:26;;;;;;;6.80;3.78;;;-0.30;99.90;;;;;;6123829;23;20018;-74
2024/01/19 09:54:53;;;;;;;6.80;3.72;;;-0.20;99.90;;;;;;6124344;23;20022;-74
2024/01/19 09:57:19;;;;;;;12.63;8.60;;;-0.10;99.90;;;;;;6123815;23;20014;-73
2024/01/19 09:59:44;;;;;;;9.35;3.92;;;0.00;99.90;;;;;;6099532;23;20053;-74
2024/01/19 10:02:13;;;;;;;8.55;3.53;;;0.10;99.90;;;;;;6123802;23;20010;-74
2024/01/19 10:04:38;;;;;;;13.25;8.40;;;0.10;99.90;;;;;;6123610;23;20116;-74
2024/01/19 10:07:04;;;;;;;7.32;3.92;;;0.10;99.90;;;;;;6124301;23;20442;-74
2024/01/19 10:09:31;;;;;;;4.00;2.97;;;0.20;99.90;;;;;;6123583;23;20065;-76
2024/01/19 10:11:57;;;;;;;8.90;3.58;;;0.30;99.90;;;;;;6123951;23;20069;-77
2024/01/19 10:14:25;;;;;;;10.63;3.53;;;0.30;99.90;;;;;;6099024;23;20392;-75
2024/01/19 10:16:52;;;;;;;10.98;3.97;;;0.40;99.90;;;;;;6123902;23;20089;-79
2024/01/19 10:19:21;;;;;;;9.18;3.35;;;0.50;99.90;;;;;;6124566;23;20014;-74
2024/01/19 10:21:47;;;;;;;10.48;6.25;;;0.60;99.90;;;;;;6124160;23;20125;-76
2024/01/19 10:24:20;;;;;;;11.48;3.33;;;0.60;99.90;;;;;;6123743;23;20010;-74
2024/01/19 10:26:53;;;;;;;11.48;6.43;;;0.70;99.90;;;;;;6123451;23;20014;-74
2024/01/19 10:29:20;;;;;;;12.15;5.88;;;0.90;99.90;;;;;;6123779;23;20014;-74
2024/01/19 10:31:48;;;;;;;8.52;5.32;;;0.90;99.90;;;;;;6123789;23;20069;-75
2024/01/19 10:34:26;;;;;;;12.02;6.15;;;1.00;99.90;;;;;;6123066;23;20014;-75
2024/01/19 10:36:52;;;;;;;9.98;5.80;;;1.20;99.90;;;;;;6123501;23;20473;-74
2024/01/19 10:39:20;;;;;;;6.72;2.88;;;1.30;99.90;;;;;;6123728;23;20328;-75
2024/01/19 10:41:47;;;;;;;6.40;2.38;;;1.40;99.90;;;;;;6123640;23;20010;-74
2024/01/19 10:44:14;;;;;;;10.20;5.85;;;1.50;99.90;;;;;;6123017;23;20010;-75
2024/01/19 10:46:40;;;;;;;14.20;5.03;;;1.50;99.90;;;;;;6123181;23;20041;-75
2024/01/19 10:49:07;;;;;;;11.23;4.88;;;1.50;99.90;;;;;;6123856;23;20014;-75
2024/01/19 10:51:42;;;;;;;11.23;5.40;;;1.40;99.90;;;;;;6123122;23;20014;-74
2024/01/19 10:54:10;;;;;;;12.60;5.28;;;1.40;99.90;;;;;;6123153;23;20439;-74
2024/01/19 10:56:38;;;;;;;11.82;5.38;;;1.40;99.90;;;;;;6123263;23;20053;-74
2024/01/19 10:59:14;;;;;;;9.60;5.30;;;1.40;99.90;;;;;;6123445;23;20013;-75
2024/01/19 11:01:40;;;;;;;13.50;5.68;;;1.50;99.90;;;;;;6122125;23;20006;-75
2024/01/19 11:04:08;;;;;;;4.70;2.67;;;1.50;99.90;;;;;;6123291;23;20343;-75
2024/01/19 11:06:37;;;;;;;11.82;5.38;;;1.50;99.90;;;;;;6123724;23;20014;-75
2024/01/19 11:09:06;;;;;;;10.70;5.28;;;1.50;99.90;;;;;;6123414;23;20092;-74
2024/01/19 11:11:46;;;;;;;11.18;5.25;;;1.60;99.90;;;;;;6123525;23;20089;-75
2024/01/19 11:14:17;;;;;;;10.48;5.38;;;1.60;99.90;;;;;;6098337;23;20037;-75
2024/01/19 11:16:47;;;;;;;8.13;2.65;;;1.60;99.90;;;;;;6123250;23;20014;-75
2024/01/19 11:19:15;;;;;;;13.43;5.65;;;1.60;99.90;;;;;;6122559;23;20014;-75
2024/01/19 11:21:41;;;;;;;5.22;2.65;;;1.70;99.90;;;;;;6123266;23;20018;-73
2024/01/19 11:24:08;;;;;;;14.00;8.85;;;1.70;99.90;;;;;;6122897;23;20010;-75
2024/01/19 11:26:39;;;;;;;12.10;5.25;;;1.80;99.90;;;;;;6123064;23;20018;-76
2024/01/19 11:29:21;;;;;;;12.68;5.57;;;1.90;99.90;;;;;;6128965;23;20037;-80
2024/01/19 11:31:48;;;;;;;11.50;6.88;;;2.00;99.90;;;;;;6129228;23;20060;-79
2024/01/19 11:34:47;;;;;;;11.32;6.05;;;2.20;99.90;;;;;;6129196;23;20010;-79
2024/01/19 11:37:44;;;;;;;12.18;5.40;;;2.30;99.90;;;;;;6126690;23;20340;-79
2024/01/19 11:40:42;;;;;;;8.35;4.70;;;2.50;99.90;;;;;;6099406;23;20324;-79
2024/01/19 11:43:07;;;;;;;8.82;4.78;;;2.80;99.90;;;;;;6068856;23;20017;-79
2024/01/19 11:45:39;;;;;;;11.48;5.38;;;3.00;99.90;;;;;;6099354;23;20014;-79
2024/01/19 11:48:06;;;;;;;13.10;4.80;;;3.30;99.90;;;;;;6074714;23;20069;-79
2024/01/19 11:50:46;;;;;;;13.98;5.38;;;3.60;99.90;;;;;;6099087;23;20018;-79
2024/01/19 11:53:13;;;;;;;13.98;6.15;;;4.00;99.90;;;;;;6098605;23;20014;-78
2024/01/19 11:55:45;;;;;;;15.23;5.88;;;4.50;99.90;;;;;;6098090;23;20454;-79
2024/01/19 11:58:31;;;;;;;10.75;5.53;;;4.90;99.90;;;;;;6098912;23;20018;-79
2024/01/19 12:01:02;;;;;;;12.32;5.75;;;5.10;99.90;;;;;;6099090;23;20014;-79
2024/01/19 12:03:28;;;;;;;11.27;5.65;;;5.20;99.90;;;;;;6098957;23;20010;-79
2024/01/19 12:05:57;;;;;;;12.50;5.18;;;5.40;99.90;;;;;;6098440;23;20069;-80
2024/01/19 12:08:22;;;;;;;10.32;4.97;;;5.60;99.90;;;;;;6075615;23;20014;-79
2024/01/19 12:11:03;;;;;;;11.98;4.95;;;5.70;99.90;;;;;;6074766;23;20068;-80
2024/01/19 12:13:33;;;;;;;11.00;4.43;;;5.80;99.90;;;;;;6074984;23;20017;-79
2024/01/19 12:16:03;;;;;;;9.77;3.90;;;6.00;99.90;;;;;;6074240;23;20050;-79
2024/01/19 12:18:30;;;;;;;10.13;3.90;;;6.30;99.90;;;;;;6074786;23;20343;-79
2024/01/19 12:20:56;;;;;;;10.50;4.15;;;6.60;99.90;;;;;;6075417;23;20021;-79
2024/01/19 12:23:22;;;;;;;8.52;3.33;;;6.90;99.90;;;;;;6099279;23;20010;-79
2024/01/19 12:25:53;;;;;;;9.95;3.20;;;7.20;99.90;;;;;;6075115;23;20089;-80
2024/01/19 12:28:18;;;;;;;10.70;3.70;;;7.30;99.90;;;;;;6108649;23;20338;-79
2024/01/19 12:30:44;;;;;;;10.27;4.00;;;7.50;99.90;;;;;;6125111;23;20024;-79
2024/01/19 12:33:24;;;;;;;9.40;3.25;;;7.50;99.90;;;;;;6125287;23;20419;-79
2024/01/19 12:36:01;;;;;;;10.43;3.70;;;7.50;99.90;;;;;;6100884;23;20014;-78
2024/01/19 12:38:27;;;;;;;8.57;3.33;;;7.50;99.90;;;;;;6125074;23;20057;-80
2024/01/19 12:40:52;;;;;;;13.05;3.90;;;7.40;99.90;;;;;;6125126;23;20021;-78
2024/01/19 12:43:18;;;;;;;12.48;3.42;;;7.20;99.90;;;;;;6120897;23;20207;-78
2024/01/19 12:45:44;;;;;;;11.30;3.28;;;7.00;99.90;;;;;;6124437;23;20454;-78